Hays Regional Airport
KHYS : now visible

Airfield :











YOU CAN JOIN US ON...

 
LOGIN :

Register | Disclaimer

   EN    FR    IT 

 









Legend :    VFR   Marginal VFR   IFR   Intensive IFR   Very Intensive IFR
Visi :
Ceiling :
>= 8 km
>= 3000ft
5 to 8 km
1000 to 3000 ft
1500m to 5 km
500 to 1000 ft
800 to 1500m
200 to 500 ft
< 800m
< 200 ft
Symbols :   Thunderstorms  Fog  Heavy snow  Heavy precipitations  Wind > 20 kt







- Airport Elevation : 1999 ft


KHYS - Hays Regional

CURRENT METAR :
  • 211356Z AUTO 18014KT 10SM CLR 17/10 A2964 RMK AO2 SLP027 T01670100

EXPIRED METARs :
  • 211256Z AUTO 16014KT 10SM CLR 16/09 A2964 RMK AO2 SLP024 T01560094
  • 211156Z AUTO 18013KT 10SM CLR 15/09 A2963 RMK AO2 SLP020 T01500089 10178 20150 53001

TAF KHYS
Valid from the 21 at 12:00 until the 22 at 12:00 UTC


211120Z 2112/2212 17014KT P6SM SCT250
FM211500 20018G28KT P6SM SKC
FM220000 35017G27KT P6SM OVC150
FM220300 35017G27KT P6SM VCTS OVC100CB
FM220600 34015G25KT P6SM BKN100
KZKC FIR / North America



MET'MAP, your aeronautical weather chart ! - Copyright ORBIFLY December 2007 - Disclaimer

ORBIFLY MET'MAP TEAM :

Programming & Development : Alexandra Zaïnal
Concept & Development : Baudouin d'Aumeries
Co-Development & Prog : Marc-Olivier Méhu
Technical & hardware support : Manuel Goepfert

Contact : metmap@orbifly.com




SOURCES & CREDITS :

   NOAA       Earth
Advisory